Time;durP1;ratioP1;P1;durP2;ratioP2;P2;SDS_P1;SDS_P2;PMS_P1;PMS_P2;Temp;Humidity;BMP_temperature;BMP_pressure;BME280_temperature;BME280_humidity;BME280_pressure;Samples;Min_cycle;Max_cycle;Signal;HPM_P1;HPM_P2
2022/03/29 00:00:53;;;;;;;;;;;9.80;79.50;;;9.13;54.34;96973.00;5053834;28;19916;-87
2022/03/29 00:03:19;;;;;;;;;;;9.80;79.40;;;9.05;54.33;96945.28;5025353;28;19932;-87
2022/03/29 00:05:44;;;;;;;;;;;9.80;79.30;;;9.32;54.22;96994.19;5041968;28;19976;-87
2022/03/29 00:08:10;;;;;;;;;;;9.90;79.20;;;9.33;53.78;96990.66;5058016;28;19920;-86
2022/03/29 00:10:36;;;;;;;;;;;9.90;78.80;;;9.37;53.55;96988.78;5023731;28;20270;-87
2022/03/29 00:13:01;;;;;;;;;;;9.90;78.60;;;9.14;53.23;96942.28;5043216;28;19959;-87
2022/03/29 00:15:28;;;;;;;;;;;9.90;78.30;;;9.36;53.95;96969.47;5070848;28;19927;-87
2022/03/29 00:17:54;;;;;;;;;;;10.00;78.70;;;9.33;53.82;96966.09;5041570;28;19931;-86
2022/03/29 00:20:22;;;;;;;;;;;10.00;78.80;;;9.47;54.03;96984.84;5034406;28;19924;-87
2022/03/29 00:22:47;;;;;;;;;;;10.00;78.90;;;9.42;53.76;96978.94;5024902;28;19931;-87
2022/03/29 00:25:14;;;;;;;;;;;9.90;78.60;;;9.13;53.58;96930.03;5025154;28;19917;-87
2022/03/29 00:27:40;;;;;;;;;;;9.90;78.50;;;9.25;53.57;96950.63;5041555;28;20390;-87
2022/03/29 00:30:07;;;;;;;;;;;9.90;78.60;;;9.15;53.67;96917.69;5037821;28;20494;-87
2022/03/29 00:32:34;;;;;;;;;;;9.90;78.70;;;9.33;53.35;96942.41;5040425;28;19925;-87
2022/03/29 00:35:00;;;;;;;;;;;9.90;78.40;;;9.05;54.00;96903.19;5055474;28;19927;-87
2022/03/29 00:37:25;;;;;;;;;;;9.90;79.20;;;9.42;54.76;96965.78;5057432;28;20060;-87
2022/03/29 00:39:51;;;;;;;;;;;9.80;79.70;;;9.31;55.13;96952.16;5038119;28;20003;-88
2022/03/29 00:42:16;;;;;;;;;;;9.80;80.20;;;9.27;55.24;96946.16;5025231;28;20050;-87
2022/03/29 00:44:42;;;;;;;;;;;9.80;79.90;;;9.28;55.53;96961.03;5057118;28;19929;-87
2022/03/29 00:47:08;;;;;;;;;;;9.80;80.40;;;9.22;55.68;96961.25;5059172;28;20378;-86
2022/03/29 00:49:34;;;;;;;;;;;9.70;80.40;;;8.94;55.98;96914.97;5039492;28;19924;-87
2022/03/29 00:52:02;;;;;;;;;;;9.70;80.70;;;8.87;56.08;96910.88;5024284;28;19924;-87
2022/03/29 00:54:34;;;;;;;;;;;9.60;80.90;;;8.80;56.11;96904.13;5039892;28;20736;-87
2022/03/29 00:57:01;;;;;;;;;;;9.50;81.00;;;9.05;56.31;96947.91;5040487;28;20019;-87
2022/03/29 00:59:27;;;;;;;;;;;9.50;81.20;;;8.45;56.49;96851.09;5037047;28;19924;-87
2022/03/29 01:01:53;;;;;;;;;;;9.40;81.70;;;8.83;57.09;96922.44;5021095;28;19917;-87
2022/03/29 01:04:21;;;;;;;;;;;9.40;81.90;;;8.80;56.96;96919.91;5026049;28;20015;-87
2022/03/29 01:06:46;;;;;;;;;;;9.40;82.10;;;8.71;57.38;96902.69;5039277;28;20217;-87
2022/03/29 01:09:12;;;;;;;;;;;9.30;82.30;;;8.72;57.57;96903.53;5026737;28;19923;-87
2022/03/29 01:11:38;;;;;;;;;;;9.30;82.40;;;8.72;57.57;96914.94;5022585;28;19928;-87
2022/03/29 01:14:04;;;;;;;;;;;9.30;82.60;;;8.54;57.73;96882.31;5024078;28;20003;-87
2022/03/29 01:19:16;;;;;;;;;;;9.20;82.80;;;8.50;58.34;96867.53;5040846;28;19974;-87
2022/03/29 01:21:50;;;;;;;;;;;9.20;83.20;;;8.14;58.75;96812.78;5026607;28;19928;-88
2022/03/29 01:24:16;;;;;;;;;;;9.20;83.30;;;8.70;58.60;96900.97;5057754;28;19925;-86
2022/03/29 01:26:42;;;;;;;;;;;9.10;83.30;;;8.13;58.51;96805.84;5029376;28;20030;-87
2022/03/29 01:29:08;;;;;;;;;;;9.10;83.50;;;8.49;58.76;96862.34;5038373;28;19917;-87
2022/03/29 01:31:34;;;;;;;;;;;9.10;83.50;;;8.24;58.46;96818.56;5042179;28;19925;-87
2022/03/29 01:33:59;;;;;;;;;;;9.10;83.50;;;8.25;58.54;96819.44;5055177;28;19920;-87
2022/03/29 01:36:25;;;;;;;;;;;9.10;84.30;;;8.55;58.59;96867.38;5054761;28;20027;-87
2022/03/29 01:38:51;;;;;;;;;;;9.10;83.80;;;8.60;58.82;96868.94;5027025;28;20267;-87
2022/03/29 01:41:16;;;;;;;;;;;9.10;83.80;;;8.39;59.06;96839.00;5024244;28;19967;-87
2022/03/29 01:43:42;;;;;;;;;;;9.10;84.10;;;8.43;59.52;96837.16;5073102;28;19925;-87
2022/03/29 01:46:12;;;;;;;;;;;9.10;84.40;;;8.11;59.29;96794.53;5058113;28;19987;-87
2022/03/29 01:48:38;;;;;;;;;;;9.10;84.20;;;8.57;59.25;96863.78;5030113;28;19924;-87
2022/03/29 01:51:06;;;;;;;;;;;9.00;84.20;;;8.46;59.28;96841.47;5040226;28;20406;-87
2022/03/29 01:53:32;;;;;;;;;;;9.00;84.00;;;8.40;58.64;96834.63;5045725;28;19916;-88
2022/03/29 01:55:59;;;;;;;;;;;9.00;83.90;;;8.56;58.55;96850.69;5060506;28;19928;-86
2022/03/29 01:58:26;;;;;;;;;;;9.00;83.70;;;8.33;57.77;96812.13;5043133;28;19917;-86
2022/03/29 02:00:52;;;;;;;;;;;9.10;83.00;;;8.59;57.27;96851.44;5054733;28;20007;-86
2022/03/29 02:03:18;;;;;;;;;;;9.10;82.60;;;8.64;56.59;96845.16;5044020;28;20023;-87
2022/03/29 02:05:44;;;;;;;;;;;9.10;81.90;;;8.56;56.00;96841.06;5026387;28;19925;-87
2022/03/29 02:08:09;;;;;;;;;;;9.20;81.50;;;8.35;55.53;96776.13;5027887;28;19924;-87
2022/03/29 02:10:35;;;;;;;;;;;9.20;81.10;;;8.71;55.92;96846.63;5026165;28;19917;-87
2022/03/29 02:13:01;;;;;;;;;;;9.20;81.30;;;8.19;56.24;96752.22;5037995;28;20394;-88
2022/03/29 02:15:27;;;;;;;;;;;9.20;81.40;;;8.68;56.28;96839.72;5026889;28;19978;-87
2022/03/29 02:17:53;;;;;;;;;;;9.10;81.60;;;8.62;56.37;96826.81;5025414;28;19916;-87
2022/03/29 02:20:20;;;;;;;;;;;9.10;81.70;;;8.37;56.38;96788.28;5043081;28;20006;-87
2022/03/29 02:22:46;;;;;;;;;;;9.10;82.00;;;8.55;56.41;96822.72;5025262;28;20354;-87
2022/03/29 02:25:12;;;;;;;;;;;9.10;81.70;;;8.57;56.32;96826.97;5027556;28;20190;-88
2022/03/29 02:27:43;;;;;;;;;;;9.00;81.90;;;8.12;56.95;96742.84;5025027;28;19924;-86
2022/03/29 02:30:11;;;;;;;;;;;9.00;82.20;;;8.55;56.99;96815.66;5042610;28;19921;-87
2022/03/29 02:32:37;;;;;;;;;;;9.00;82.50;;;7.89;56.58;96707.81;5066478;28;19924;-87
2022/03/29 02:35:03;;;;;;;;;;;9.00;82.10;;;8.49;56.62;96804.53;5041711;28;19924;-86
2022/03/29 02:37:29;;;;;;;;;;;9.00;82.20;;;8.18;56.11;96761.88;5045587;28;19921;-87
2022/03/29 02:39:57;;;;;;;;;;;9.00;81.90;;;8.16;55.94;96755.81;5072142;28;20006;-87
2022/03/29 02:42:23;;;;;;;;;;;9.00;81.60;;;8.36;55.53;96790.97;5024301;28;19916;-87
2022/03/29 02:44:48;;;;;;;;;;;9.00;81.20;;;8.46;55.70;96796.78;5027095;28;19921;-87
2022/03/29 02:47:14;;;;;;;;;;;9.00;81.50;;;8.36;55.58;96786.59;5025298;28;19917;-87
2022/03/29 02:49:40;;;;;;;;;;;9.00;81.30;;;8.44;56.11;96799.47;5042351;28;20001;-86
2022/03/29 02:52:06;;;;;;;;;;;9.00;81.80;;;8.46;56.04;96800.25;5037851;28;19928;-87
2022/03/29 02:54:31;;;;;;;;;;;9.00;81.70;;;8.28;56.10;96767.63;5041782;28;19920;-87
2022/03/29 02:56:57;;;;;;;;;;;9.00;81.70;;;8.33;56.43;96773.56;5022662;28;19967;-87
2022/03/29 02:59:23;;;;;;;;;;;9.00;81.90;;;7.79;56.26;96694.19;5025560;28;19923;-87
2022/03/29 03:01:48;;;;;;;;;;;9.00;82.00;;;8.51;55.47;96802.72;5041275;28;19924;-87
2022/03/29 03:04:14;;;;;;;;;;;9.00;81.30;;;8.38;55.74;96768.13;5023252;28;20390;-87
2022/03/29 03:06:43;;;;;;;;;;;9.10;81.60;;;8.53;55.87;96795.63;5059575;28;19920;-88
2022/03/29 03:09:09;;;;;;;;;;;9.00;81.50;;;8.41;55.02;96775.88;5040320;28;19932;-87
2022/03/29 03:11:37;;;;;;;;;;;9.10;80.80;;;8.21;54.91;96743.34;5042334;28;19970;-86
2022/03/29 03:14:03;;;;;;;;;;;9.00;80.70;;;8.12;54.76;96725.31;5039742;28;19939;-88
2022/03/29 03:16:29;;;;;;;;;;;9.10;80.50;;;8.34;55.14;96758.66;5041471;28;19924;-87
2022/03/29 03:18:55;;;;;;;;;;;9.00;80.80;;;8.51;55.44;96789.59;5056088;28;19967;-87
2022/03/29 03:21:21;;;;;;;;;;;9.00;81.10;;;7.85;56.11;96685.22;5056373;28;20040;-87
2022/03/29 03:23:47;;;;;;;;;;;9.00;81.80;;;8.40;56.43;96792.59;5044963;28;20416;-87
2022/03/29 03:26:12;;;;;;;;;;;8.90;82.10;;;8.26;56.83;96768.63;5073129;28;20022;-87
2022/03/29 03:28:38;;;;;;;;;;;8.90;82.30;;;8.32;56.31;96768.38;5040510;28;20357;-88
2022/03/29 03:31:03;;;;;;;;;;;8.90;82.10;;;7.93;56.50;96713.78;5038523;28;20440;-88
2022/03/29 03:33:29;;;;;;;;;;;8.90;82.20;;;8.01;56.98;96730.13;5040471;28;20320;-87
2022/03/29 03:35:55;;;;;;;;;;;8.80;82.50;;;8.18;59.35;96782.88;5056057;28;19982;-87
2022/03/29 03:38:20;;;;;;;;;;;8.70;83.50;;;8.00;62.16;96778.28;5054437;28;20068;-87
2022/03/29 03:40:46;;;;;;;;;;;8.60;86.30;;;7.81;61.77;96768.47;5039683;28;19982;-87
2022/03/29 03:43:11;;;;;;;;;;;8.50;86.00;;;7.54;61.92;96740.59;5039037;28;20007;-87
2022/03/29 03:45:37;;;;;;;;;;;8.30;86.10;;;7.58;63.40;96777.16;5031365;28;20007;-87
2022/03/29 03:48:04;;;;;;;;;;;8.20;87.00;;;7.01;64.96;96710.91;5042984;28;19931;-86
2022/03/29 03:50:30;;;;;;;;;;;8.10;88.40;;;7.22;65.39;96764.41;5037369;28;19974;-86
2022/03/29 03:52:56;;;;;;;;;;;7.90;88.50;;;7.08;67.43;96775.34;5062036;28;19985;-87
2022/03/29 03:55:22;;;;;;;;;;;7.70;90.00;;;6.69;68.06;96746.03;5026198;28;19924;-87
2022/03/29 03:57:48;;;;;;;;;;;7.50;90.10;;;6.71;68.77;96772.19;5026041;28;20400;-86
2022/03/29 04:00:15;;;;;;;;;;;7.40;90.40;;;6.53;69.43;96766.63;5029595;28;20212;-87
2022/03/29 04:02:41;;;;;;;;;;;7.30;90.60;;;6.24;69.30;96726.47;5040784;28;20015;-87
2022/03/29 04:05:08;;;;;;;;;;;7.20;90.60;;;6.06;68.94;96714.78;5028039;28;19912;-87
2022/03/29 04:07:34;;;;;;;;;;;7.10;90.50;;;6.15;69.04;96752.94;5040690;28;20539;-87
2022/03/29 04:10:00;;;;;;;;;;;7.00;90.60;;;6.11;68.96;96743.44;5051750;28;19921;-85
2022/03/29 04:12:27;;;;;;;;;;;7.00;90.60;;;5.80;69.46;96710.31;5026058;28;20384;-87
2022/03/29 04:14:54;;;;;;;;;;;6.90;90.80;;;6.14;69.96;96772.16;5041886;28;20378;-88
2022/03/29 04:17:19;;;;;;;;;;;6.80;91.00;;;5.57;70.99;96673.50;5039674;28;22461;-86
2022/03/29 04:19:45;;;;;;;;;;;6.70;91.30;;;6.01;71.39;96749.84;5037126;28;19916;-87
2022/03/29 04:22:11;;;;;;;;;;;6.70;91.50;;;6.10;70.98;96763.56;5040914;28;19929;-87
2022/03/29 04:24:36;;;;;;;;;;;6.70;91.40;;;5.45;71.13;96651.16;5053903;28;20455;-87
2022/03/29 04:27:03;;;;;;;;;;;6.70;91.50;;;5.77;71.44;96696.44;5022204;28;19921;-87
2022/03/29 04:29:31;;;;;;;;;;;6.80;91.60;;;6.20;71.00;96761.50;5034507;28;19963;-86
2022/03/29 04:31:57;;;;;;;;;;;6.80;91.60;;;6.00;70.26;96708.91;5035882;28;19939;-88
2022/03/29 04:34:23;;;;;;;;;;;6.80;91.30;;;6.31;70.21;96750.72;5034140;28;19948;-88
2022/03/29 04:36:49;;;;;;;;;;;6.90;91.30;;;6.38;69.02;96744.38;5034575;28;19920;-87
2022/03/29 04:39:14;;;;;;;;;;;6.90;91.10;;;6.15;68.29;96690.09;5038627;28;19927;-88
2022/03/29 04:41:40;;;;;;;;;;;7.00;90.90;;;5.95;68.41;96654.03;5041128;28;19930;-88
2022/03/29 04:44:06;;;;;;;;;;;7.10;90.90;;;6.16;69.24;96676.09;5021002;28;20003;-87
2022/03/29 04:46:31;;;;;;;;;;;7.10;91.20;;;6.17;69.63;96677.81;5017245;28;19916;-87
2022/03/29 04:48:57;;;;;;;;;;;7.10;91.20;;;6.37;69.38;96711.25;5029113;28;20425;-86
2022/03/29 04:51:23;;;;;;;;;;;7.20;91.20;;;6.25;70.02;96686.28;5032000;28;19977;-87
2022/03/29 04:53:48;;;;;;;;;;;7.10;91.40;;;6.54;70.31;96729.03;5038057;28;19924;-87
2022/03/29 04:56:14;;;;;;;;;;;7.10;91.50;;;6.39;70.62;96713.78;5036145;28;19928;-87
2022/03/29 04:58:40;;;;;;;;;;;7.10;91.60;;;6.45;70.68;96735.44;5034276;28;19924;-87
2022/03/29 05:01:05;;;;;;;;;;;7.10;91.60;;;6.43;69.59;96733.78;5049301;28;20405;-87
2022/03/29 05:03:32;;;;;;;;;;;7.10;91.40;;;6.50;69.60;96735.28;5051094;28;19929;-87
2022/03/29 05:05:58;;;;;;;;;;;7.10;91.30;;;6.29;69.79;96718.47;5048674;28;19932;-86
2022/03/29 05:08:23;;;;;;;;;;;7.00;91.40;;;6.34;69.37;96713.97;5049550;28;20286;-86
2022/03/29 05:10:49;;;;;;;;;;;7.00;91.30;;;6.39;69.25;96712.06;5036894;28;19956;-87
2022/03/29 05:13:15;;;;;;;;;;;7.10;91.20;;;6.39;69.25;96713.78;5019449;28;19990;-87
2022/03/29 05:15:41;;;;;;;;;;;7.10;91.30;;;6.49;69.32;96737.03;5054842;28;20127;-87
2022/03/29 05:18:07;;;;;;;;;;;7.00;91.30;;;6.35;69.81;96704.34;5036659;28;20393;-86
2022/03/29 05:20:32;;;;;;;;;;;7.00;91.50;;;6.37;69.95;96710.38;5037921;28;20279;-86
2022/03/29 05:23:00;;;;;;;;;;;7.10;91.60;;;6.40;70.13;96707.66;5023011;28;20018;-87
2022/03/29 05:25:26;;;;;;;;;;;7.10;91.70;;;6.17;70.49;96675.19;5039746;28;19986;-86
2022/03/29 05:27:52;;;;;;;;;;;7.10;91.80;;;6.56;70.33;96727.22;5057886;28;19966;-86
2022/03/29 05:30:19;;;;;;;;;;;7.10;91.80;;;6.58;70.31;96719.31;5051497;28;20159;-86
2022/03/29 05:32:44;;;;;;;;;;;7.20;91.80;;;6.35;69.93;96676.38;5054386;28;20256;-87
2022/03/29 05:35:11;;;;;;;;;;;7.30;91.80;;;6.47;69.41;96683.00;5038725;28;19924;-87
2022/03/29 05:37:38;;;;;;;;;;;7.30;91.70;;;6.94;69.10;96737.38;5023303;28;20357;-87
2022/03/29 05:40:09;;;;;;;;;;;7.40;91.60;;;7.02;69.07;96738.00;5056945;28;20398;-87
2022/03/29 05:42:42;;;;;;;;;;;7.50;91.60;;;6.99;68.61;96720.59;5041532;28;20007;-87
2022/03/29 05:45:09;;;;;;;;;;;7.60;91.50;;;6.88;68.33;96680.78;5069696;28;20324;-86
2022/03/29 05:50:19;;;;;;;;;;;7.80;91.30;;;7.37;68.12;96714.94;5053267;28;19928;-86
2022/03/29 05:52:45;;;;;;;;;;;7.90;91.30;;;7.38;67.54;96700.94;5036001;28;19929;-87
2022/03/29 05:55:11;;;;;;;;;;;8.00;91.10;;;7.21;66.98;96649.06;5058667;28;19916;-86
2022/03/29 05:57:37;;;;;;;;;;;8.10;91.00;;;7.72;66.67;96718.94;5023773;28;19977;-86
2022/03/29 06:00:04;;;;;;;;;;;8.10;90.90;;;7.44;66.40;96670.06;5029979;28;20043;-87
2022/03/29 06:02:30;;;;;;;;;;;8.30;90.90;;;7.41;66.36;96646.59;5061183;28;19924;-86
2022/03/29 06:04:55;;;;;;;;;;;8.40;90.80;;;7.88;65.60;96718.34;5074981;28;19936;-86
2022/03/29 06:07:21;;;;;;;;;;;8.50;90.60;;;7.49;65.70;96635.81;5022541;28;19944;-86
2022/03/29 06:09:46;;;;;;;;;;;8.50;90.70;;;7.92;65.32;96686.69;5050364;28;19964;-86
2022/03/29 06:12:12;;;;;;;;;;;8.60;90.50;;;7.74;64.42;96654.13;5032150;28;19920;-87
2022/03/29 06:14:39;;;;;;;;;;;8.70;90.40;;;7.97;64.36;96670.78;5039780;28;19936;-87
2022/03/29 06:17:06;;;;;;;;;;;8.80;90.30;;;8.27;64.29;96710.72;5039810;28;19920;-86
2022/03/29 06:19:31;;;;;;;;;;;8.90;90.20;;;8.25;64.45;96688.94;5048013;28;21539;-87
2022/03/29 06:21:57;;;;;;;;;;;9.00;90.20;;;8.07;64.21;96635.34;5075752;28;19913;-86
2022/03/29 06:24:23;;;;;;;;;;;9.00;90.20;;;8.41;64.37;96676.03;5039197;28;19977;-86
2022/03/29 06:26:49;;;;;;;;;;;9.20;90.30;;;8.54;63.36;96690.47;5034705;28;20365;-87
2022/03/29 06:29:14;;;;;;;;;;;9.30;90.00;;;8.66;62.72;96673.31;5036018;28;19932;-86
2022/03/29 06:31:40;;;;;;;;;;;9.50;89.80;;;8.81;62.28;96690.25;5069020;28;19917;-87
2022/03/29 06:34:05;;;;;;;;;;;9.60;89.30;;;9.06;61.60;96705.00;5068682;28;19920;-87
2022/03/29 06:36:31;;;;;;;;;;;9.70;88.80;;;9.18;61.33;96704.47;5056009;28;20031;-87
2022/03/29 06:38:57;;;;;;;;;;;9.80;88.60;;;9.50;61.18;96747.00;5052418;28;19932;-87
2022/03/29 06:41:23;;;;;;;;;;;9.90;88.30;;;9.52;60.19;96738.09;5053865;28;19920;-87
2022/03/29 06:43:48;;;;;;;;;;;10.00;89.00;;;9.37;59.78;96707.19;5037046;28;19924;-87
2022/03/29 06:46:15;;;;;;;;;;;10.10;87.50;;;9.38;59.91;96677.31;5036558;28;19920;-87
2022/03/29 06:48:41;;;;;;;;;;;10.20;88.30;;;9.74;59.78;96727.50;5034520;28;19930;-87
2022/03/29 06:51:09;;;;;;;;;;;10.30;87.60;;;9.63;59.50;96689.38;5035657;28;19931;-87
2022/03/29 06:53:40;;;;;;;;;;;10.40;87.40;;;9.66;59.21;96681.38;5067340;28;19931;-87
2022/03/29 06:56:07;;;;;;;;;;;10.50;87.20;;;9.85;58.05;96699.81;5048362;28;19935;-88
2022/03/29 06:58:36;;;;;;;;;;;10.60;86.20;;;10.22;57.31;96738.50;5053731;28;19967;-87
2022/03/29 07:01:03;;;;;;;;;;;10.70;85.50;;;10.09;57.25;96698.69;5057138;28;19942;-87
2022/03/29 07:03:30;;;;;;;;;;;10.80;85.40;;;10.23;56.99;96711.25;5072155;28;19916;-87
2022/03/29 07:05:56;;;;;;;;;;;10.90;85.20;;;10.36;56.97;96727.34;5047013;28;20286;-86
2022/03/29 07:08:22;;;;;;;;;;;10.90;85.10;;;10.61;56.82;96755.22;5032051;28;19924;-87
2022/03/29 07:13:32;;;;;;;;;;;11.10;84.90;;;10.62;56.10;96730.53;5048285;28;20309;-87
2022/03/29 07:15:58;;;;;;;;;;;11.20;84.60;;;10.42;56.31;96695.44;5052736;28;19920;-87
2022/03/29 07:18:24;;;;;;;;;;;11.20;84.40;;;10.86;57.87;96746.97;5037705;28;20292;-88
2022/03/29 07:20:49;;;;;;;;;;;11.30;85.20;;;10.82;56.78;96727.81;5054863;28;19959;-87
2022/03/29 07:23:15;;;;;;;;;;;11.30;84.80;;;10.34;56.48;96644.88;5049667;28;19920;-87
2022/03/29 07:25:41;;;;;;;;;;;11.30;84.90;;;10.92;56.52;96722.94;5032182;28;19963;-87
2022/03/29 07:28:11;;;;;;;;;;;11.40;84.90;;;10.62;55.91;96673.41;5051994;28;19920;-87
2022/03/29 07:30:40;;;;;;;;;;;11.50;84.60;;;10.78;55.11;96673.47;5033613;28;19932;-87
2022/03/29 07:33:07;;;;;;;;;;;11.50;83.80;;;11.30;54.78;96745.69;5031296;28;20048;-87
2022/03/29 07:35:33;;;;;;;;;;;11.60;83.20;;;11.02;53.88;96684.63;5034047;28;20400;-87
2022/03/29 07:37:59;;;;;;;;;;;11.70;82.80;;;11.22;53.40;96710.00;5029428;28;19990;-87
2022/03/29 07:40:28;;;;;;;;;;;11.80;82.30;;;11.50;53.05;96736.75;5029304;28;20501;-87
2022/03/29 07:42:54;;;;;;;;;;;11.90;81.90;;;11.62;52.08;96742.28;5039521;28;21318;-87
2022/03/29 07:45:20;;;;;;;;;;;12.00;81.20;;;11.46;52.18;96705.22;5044379;28;19960;-87
2022/03/29 07:47:51;;;;;;;;;;;12.10;80.80;;;11.49;52.03;96677.00;5016338;28;19959;-87
2022/03/29 07:50:18;;;;;;;;;;;12.10;80.70;;;11.94;51.42;96741.56;5065745;28;19928;-86
2022/03/29 07:52:44;;;;;;;;;;;12.30;80.20;;;11.76;51.08;96693.16;5028461;28;19917;-87
2022/03/29 07:55:11;;;;;;;;;;;12.30;80.10;;;11.84;51.64;96680.38;5041497;28;19921;-87
2022/03/29 07:57:37;;;;;;;;;;;12.50;79.90;;;12.23;51.44;96738.19;5070197;28;19928;-87
2022/03/29 08:00:31;;;;;;;;;;;12.60;80.10;;;11.97;50.75;96672.69;5055692;28;19939;-87
2022/03/29 08:02:52;;;;;;;;;;;12.60;79.60;;;12.44;50.08;96726.56;5035970;28;19973;-86
2022/03/29 08:05:18;;;;;;;;;;;12.80;78.70;;;12.57;51.07;96740.81;5033383;28;22537;-88
2022/03/29 08:07:44;;;;;;;;;;;12.90;79.00;;;11.98;51.37;96643.53;5030159;28;20729;-87
2022/03/29 08:10:10;;;;;;;;;;;12.90;79.90;;;12.54;50.00;96740.97;5031586;28;19932;-86
2022/03/29 08:12:36;;;;;;;;;;;12.90;78.20;;;12.43;48.99;96712.47;5029441;28;19924;-88
2022/03/29 08:15:02;;;;;;;;;;;12.90;77.70;;;11.96;48.46;96649.84;5053227;28;19935;-85
2022/03/29 08:17:27;;;;;;;;;;;12.90;76.70;;;12.22;48.60;96678.34;5047391;28;19974;-86
2022/03/29 08:19:53;;;;;;;;;;;12.90;76.50;;;12.62;47.36;96730.81;5052742;28;20011;-86
2022/03/29 08:22:19;;;;;;;;;;;13.00;75.90;;;12.79;47.63;96733.38;5015078;28;20377;-86
2022/03/29 08:24:44;;;;;;;;;;;13.10;75.80;;;12.66;47.47;96703.25;5023114;28;19981;-86
2022/03/29 08:27:10;;;;;;;;;;;13.20;75.60;;;13.06;47.39;96722.13;5028584;28;20028;-85
2022/03/29 08:29:37;;;;;;;;;;;13.50;75.50;;;13.04;46.52;96702.84;5015521;28;19920;-86
2022/03/29 08:32:03;;;;;;;;;;;13.60;74.40;;;13.45;45.77;96757.03;5029682;28;19920;-86
2022/03/29 08:34:29;;;;;;;;;;;13.80;73.70;;;13.46;45.56;96740.16;5025479;28;20304;-86
2022/03/29 08:36:55;;;;;;;;;;;13.90;72.90;;;13.49;44.92;96730.25;5034329;28;20561;-86
2022/03/29 08:39:20;;;;;;;;;;;13.90;72.30;;;13.64;44.89;96723.19;5034079;28;20350;-86
2022/03/29 08:41:53;;;;;;;;;;;14.00;71.60;;;13.70;44.20;96711.38;5047250;28;19920;-86
2022/03/29 08:44:19;;;;;;;;;;;14.20;71.50;;;13.73;44.01;96698.78;5046762;28;20278;-86
2022/03/29 08:46:46;;;;;;;;;;;14.30;70.90;;;14.08;42.81;96742.63;5016486;28;19924;-86
2022/03/29 08:49:13;;;;;;;;;;;14.40;69.00;;;14.13;42.63;96741.41;5017956;28;20462;-86
2022/03/29 08:51:39;;;;;;;;;;;14.50;69.00;;;14.05;42.71;96705.69;5047654;28;19930;-85
2022/03/29 08:54:06;;;;;;;;;;;14.60;68.80;;;14.30;42.92;96740.38;5049635;28;19924;-85
2022/03/29 08:56:41;;;;;;;;;;;14.70;69.30;;;14.45;42.43;96737.72;5033418;28;21202;-86
2022/03/29 08:59:07;;;;;;;;;;;14.80;68.50;;;14.12;40.15;96661.94;5052432;28;20011;-85
2022/03/29 09:01:36;;;;;;;;;;;14.90;66.90;;;14.65;40.14;96725.84;5033922;28;20384;-85
2022/03/29 09:04:14;;;;;;;;;;;15.10;65.70;;;14.87;39.59;96738.59;5053364;28;20011;-86
2022/03/29 09:06:55;;;;;;;;;;;15.20;64.60;;;14.68;39.14;96672.59;5053312;28;20085;-85
2022/03/29 09:09:51;;;;;;;;;;;15.30;63.60;;;15.26;38.91;96739.59;5015795;28;20096;-86
2022/03/29 09:12:18;;;;;;;;;;;15.50;63.40;;;15.07;38.25;96732.84;5038682;28;19916;-85
2022/03/29 09:14:54;;;;;;;;;;;15.50;61.30;;;14.83;39.29;96668.06;5040631;28;20414;-86
2022/03/29 09:17:28;;;;;;;;;;;15.60;63.10;;;15.07;38.87;96679.75;5035225;28;19936;-85
2022/03/29 09:19:55;;;;;;;;;;;15.70;62.80;;;14.91;38.97;96648.97;5034052;28;20360;-86
2022/03/29 09:22:43;;;;;;;;;;;15.80;63.00;;;15.18;39.30;96664.88;5019234;28;19927;-85
2022/03/29 09:25:24;;;;;;;;;;;15.90;63.20;;;15.42;38.34;96700.41;5048319;28;19920;-85
2022/03/29 09:27:54;;;;;;;;;;;16.00;62.50;;;15.20;38.34;96681.53;5020775;28;19926;-85
2022/03/29 09:30:20;;;;;;;;;;;16.00;61.20;;;15.40;37.86;96707.63;5050542;28;20120;-85
2022/03/29 09:33:05;;;;;;;;;;;15.90;61.40;;;15.43;39.15;96698.59;5050275;28;20277;-85
2022/03/29 09:35:56;;;;;;;;;;;15.90;62.00;;;15.71;39.24;96712.69;5065489;28;19920;-86
2022/03/29 09:38:30;;;;;;;;;;;16.00;64.00;;;15.89;38.54;96718.56;5036240;28;19924;-86
2022/03/29 09:40:57;;;;;;;;;;;16.10;62.50;;;15.48;38.78;96613.28;5013143;28;21260;-86
2022/03/29 09:43:24;;;;;;;;;;;16.40;62.70;;;16.15;38.38;96676.84;5034890;28;19947;-85
2022/03/29 09:45:55;;;;;;;;;;;16.70;62.40;;;16.53;38.33;96678.59;5016773;28;20605;-85
2022/03/29 09:48:31;;;;;;;;;;;17.00;62.40;;;16.70;37.57;96666.69;5034912;28;19924;-85
2022/03/29 09:51:14;;;;;;;;;;;17.30;61.50;;;17.26;37.85;96708.75;5049942;28;19974;-85
2022/03/29 09:53:51;;;;;;;;;;;17.60;61.00;;;17.25;37.52;96683.94;5052478;28;19924;-86
2022/03/29 09:56:24;;;;;;;;;;;17.70;61.00;;;17.39;36.36;96674.91;5037992;28;19928;-86
2022/03/29 09:59:14;;;;;;;;;;;17.90;59.30;;;17.48;36.20;96678.66;5037392;28;20074;-86
2022/03/29 10:01:53;;;;;;;;;;;17.90;59.40;;;17.34;36.38;96683.22;5019822;28;20887;-85
2022/03/29 10:04:20;;;;;;;;;;;17.80;59.00;;;17.06;36.99;96633.00;5040026;28;20590;-86
2022/03/29 10:06:48;;;;;;;;;;;17.90;59.30;;;16.74;37.33;96582.97;5037436;28;20618;-86
2022/03/29 10:09:29;;;;;;;;;;;17.80;59.40;;;17.22;36.88;96667.34;5053528;28;19920;-86
2022/03/29 10:11:58;;;;;;;;;;;17.70;59.30;;;17.10;37.65;96651.31;5046809;28;19927;-86
2022/03/29 10:14:25;;;;;;;;;;;17.60;59.80;;;16.89;38.01;96613.81;5055213;28;19927;-86
2022/03/29 10:16:55;;;;;;;;;;;17.60;60.80;;;16.67;36.99;96587.91;5026313;28;19921;-85
2022/03/29 10:19:30;;;;;;;;;;;17.60;59.00;;;16.67;38.06;96571.06;5037907;28;19924;-86
2022/03/29 10:22:01;;;;;;;;;;;17.60;60.30;;;17.01;37.08;96614.69;5041454;28;19956;-86
2022/03/29 10:24:30;;;;;;;;;;;17.60;60.00;;;16.74;36.26;96559.88;5069206;28;19927;-86
2022/03/29 10:26:59;;;;;;;;;;;17.60;59.00;;;16.87;37.00;96583.78;5057119;28;19931;-86
2022/03/29 10:29:31;;;;;;;;;;;17.60;59.10;;;16.49;36.46;96502.31;5069449;28;19950;-86
2022/03/29 10:32:06;;;;;;;;;;;17.60;59.10;;;16.90;34.80;96574.72;5049567;28;20304;-86
2022/03/29 10:34:42;;;;;;;;;;;17.70;57.20;;;17.26;35.42;96621.66;5039658;28;20022;-86
2022/03/29 10:37:17;;;;;;;;;;;17.70;57.40;;;17.35;35.99;96623.66;5055738;28;20047;-85
2022/03/29 10:39:58;;;;;;;;;;;17.70;58.00;;;17.33;36.37;96619.38;5052288;28;19916;-85
2022/03/29 10:42:29;;;;;;;;;;;17.80;58.20;;;17.56;36.13;96638.94;5023284;28;19916;-85
2022/03/29 10:45:20;;;;;;;;;;;17.90;58.40;;;17.72;35.36;96634.13;5074398;28;19965;-85
2022/03/29 10:48:05;;;;;;;;;;;18.00;57.60;;;17.79;35.23;96607.81;5029558;28;19985;-86
2022/03/29 10:51:01;;;;;;;;;;;18.20;56.80;;;17.94;35.17;96589.78;5068388;28;19927;-86
2022/03/29 10:53:45;;;;;;;;;;;18.40;56.60;;;17.90;34.98;96551.84;5034834;28;20142;-85
2022/03/29 10:56:10;;;;;;;;;;;18.60;57.00;;;18.13;35.38;96592.69;5051237;28;20037;-86
2022/03/29 10:58:36;;;;;;;;;;;18.60;56.60;;;18.03;35.45;96570.38;5049144;28;19920;-86
2022/03/29 11:01:13;;;;;;;;;;;18.70;56.60;;;18.25;35.35;96572.19;5033693;28;20370;-85
2022/03/29 11:03:58;;;;;;;;;;;18.70;56.90;;;18.08;34.75;96514.81;5052464;28;19926;-86
2022/03/29 11:06:24;;;;;;;;;;;18.80;56.50;;;18.35;35.08;96561.59;5054059;28;20019;-86
2022/03/29 11:09:04;;;;;;;;;;;18.80;56.60;;;17.99;34.44;96499.56;5039884;28;20011;-86
2022/03/29 11:11:51;;;;;;;;;;;18.80;55.40;;;18.21;34.73;96557.38;5033896;28;19924;-86
2022/03/29 11:14:36;;;;;;;;;;;18.80;56.10;;;18.18;35.21;96562.97;5054334;23;20348;-44
2022/03/29 11:17:11;;;;;;;;;;;18.70;56.10;;;17.98;34.44;96566.38;5065427;28;19928;-41
2022/03/29 11:19:46;;;;;;;;;;;18.60;55.20;;;18.06;34.50;96571.97;5068949;28;19993;-42
2022/03/29 11:22:32;;;;;;;;;;;18.60;55.90;;;18.09;34.30;96566.38;5069214;28;19927;-38
2022/03/29 11:24:59;;;;;;;;;;;18.60;55.80;;;18.07;34.45;96557.63;5050274;28;20313;-40
2022/03/29 11:27:33;;;;;;;;;;;18.60;55.60;;;18.18;33.96;96562.97;5068214;28;19923;-40
2022/03/29 11:30:00;;;;;;;;;;;18.60;54.90;;;18.07;33.77;96563.84;5063477;28;20472;-41
2022/03/29 11:32:25;;;;;;;;;;;18.60;54.80;;;18.12;34.85;96556.31;5070315;28;19971;-43
2022/03/29 11:34:55;;;;;;;;;;;18.60;56.10;;;18.17;34.63;96557.75;5076459;28;19952;-42
2022/03/29 11:37:27;;;;;;;;;;;18.60;55.70;;;18.26;35.07;96555.16;5071935;28;19928;-41
2022/03/29 11:39:53;;;;;;;;;;;18.60;56.40;;;18.34;34.40;96538.56;5073245;28;19931;-46